Time;durP1;ratioP1;P1;durP2;ratioP2;P2;SDS_P1;SDS_P2;PMS_P1;PMS_P2;Temp;Humidity;BMP_temperature;BMP_pressure;BME280_temperature;BME280_humidity;BME280_pressure;Samples;Min_cycle;Max_cycle;Signal;HPM_P1;HPM_P2
2022/06/08 00:00:19;;;;;;;16.53;9.70;;;;;;;10.29;100.00;99707.66;7396963;19;20390;-53
2022/06/08 00:02:55;;;;;;;11.40;7.73;;;;;;;10.21;100.00;99707.44;7388852;19;20407;-55
2022/06/08 00:05:25;;;;;;;12.77;7.80;;;;;;;10.13;100.00;99696.94;7397782;19;20395;-56
2022/06/08 00:07:55;;;;;;;14.93;9.27;;;;;;;10.09;100.00;99695.97;7388488;19;20415;-57
2022/06/08 00:10:25;;;;;;;16.07;7.43;;;;;;;10.06;100.00;99687.28;7397275;19;20451;-57
2022/06/08 00:12:55;;;;;;;12.30;7.80;;;;;;;10.06;100.00;99677.84;7391447;19;20502;-57
2022/06/08 00:15:25;;;;;;;16.63;10.07;;;;;;;10.03;100.00;99664.88;7398175;19;20398;-56
2022/06/08 00:17:59;;;;;;;13.93;7.27;;;;;;;10.01;100.00;99656.25;7391902;19;20419;-54
2022/06/08 00:20:29;;;;;;;16.57;7.47;;;;;;;10.02;100.00;99649.38;7397570;19;20439;-54
2022/06/08 00:22:58;;;;;;;14.60;7.40;;;;;;;10.02;100.00;99642.53;7389760;19;21050;-54
2022/06/08 00:25:28;;;;;;;12.60;6.70;;;;;;;9.98;100.00;99630.38;7398068;19;20388;-55
2022/06/08 00:27:58;;;;;;;12.27;7.40;;;;;;;9.99;100.00;99619.25;7386900;19;20959;-56
2022/06/08 00:30:28;;;;;;;10.77;6.87;;;;;;;9.93;100.00;99603.63;7397644;19;20401;-54
2022/06/08 00:33:00;;;;;;;10.90;7.57;;;;;;;9.99;100.00;99602.09;7389754;19;20498;-57
2022/06/08 00:35:30;;;;;;;11.97;6.93;;;;;;;9.95;100.00;99589.94;7397797;19;20920;-55
2022/06/08 00:38:00;;;;;;;12.50;6.03;;;;;;;9.95;100.00;99589.09;7389396;19;20444;-56
2022/06/08 00:40:42;;;;;;;10.50;6.43;;;;;;;9.95;100.00;99573.63;7396581;19;20463;-50
2022/06/08 00:43:12;;;;;;;11.13;7.27;;;;;;;9.95;100.00;99556.47;7389761;19;20423;-57
2022/06/08 00:45:42;;;;;;;15.13;6.40;;;;;;;9.91;100.00;99561.50;7396685;19;20398;-57
2022/06/08 00:48:15;;;;;;;13.97;6.30;;;;;;;9.88;100.00;99552.00;7391260;19;20415;-57
2022/06/08 00:50:47;;;;;;;10.50;7.07;;;;;;;9.91;100.00;99551.19;7396788;19;20446;-54
2022/06/08 00:53:19;;;;;;;13.20;7.40;;;;;;;9.90;100.00;99539.16;7389681;19;20780;-56
2022/06/08 00:55:49;;;;;;;14.10;6.70;;;;;;;9.86;100.00;99538.22;7396624;19;20408;-49
2022/06/08 00:58:24;;;;;;;16.47;7.60;;;;;;;9.85;100.00;99563.09;7388611;19;20790;-55
2022/06/08 01:00:54;;;;;;;11.50;6.70;;;;;;;9.80;100.00;99544.06;7396056;19;20387;-56
2022/06/08 01:03:27;;;;;;;16.13;6.83;;;;;;;9.81;100.00;99545.81;7388428;19;20407;-53
2022/06/08 01:06:00;;;;;;;15.63;7.90;;;;;;;9.80;100.00;99544.06;7395107;19;20475;-53
2022/06/08 01:08:33;;;;;;;14.37;7.87;;;;;;;9.77;100.00;99543.09;7395432;19;20411;-56
2022/06/08 01:11:05;;;;;;;14.23;7.90;;;;;;;9.79;100.00;99541.47;7384779;19;20501;-56
2022/06/08 01:13:37;;;;;;;15.40;7.30;;;;;;;9.78;100.00;99535.44;7394388;19;20418;-55
2022/06/08 01:16:08;;;;;;;18.00;7.97;;;;;;;9.76;100.00;99537.09;7391446;19;20435;-53
2022/06/08 01:18:42;;;;;;;15.20;7.53;;;;;;;9.73;100.00;99531.84;7395605;19;20383;-54
2022/06/08 01:21:41;;;;;;;12.73;7.57;;;;;;;9.77;100.00;99518.22;7391382;19;20394;-50
2022/06/08 01:24:14;;;;;;;12.10;6.67;;;;;;;9.73;100.00;99518.97;7394428;19;20400;-56
2022/06/08 01:26:46;;;;;;;14.13;8.53;;;;;;;9.63;100.00;99515.31;7390481;19;20411;-53
2022/06/08 01:29:19;;;;;;;15.03;8.70;;;;;;;9.61;100.00;99510.94;7395961;19;20444;-50
2022/06/08 01:31:55;;;;;;;13.97;7.70;;;;;;;9.58;100.00;99507.47;7391164;19;20844;-51
2022/06/08 01:34:32;;;;;;;15.50;7.47;;;;;;;9.55;100.00;99509.94;7396009;19;20415;-56
2022/06/08 01:37:12;;;;;;;14.53;8.00;;;;;;;9.52;100.00;99502.16;7388653;19;20411;-54
2022/06/08 01:40:00;;;;;;;12.30;7.03;;;;;;;9.53;100.00;99492.75;7395532;19;20386;-56
2022/06/08 01:42:43;;;;;;;11.57;7.23;;;;;;;9.51;100.00;99479.81;7387778;19;20415;-55
2022/06/08 01:45:33;;;;;;;13.20;8.23;;;;;;;9.48;100.00;99473.72;7394619;19;20380;-57
2022/06/08 01:48:18;;;;;;;12.93;7.67;;;;;;;9.45;100.00;99461.63;7389810;19;20434;-54
2022/06/08 01:50:58;;;;;;;11.30;7.97;;;;;;;9.47;100.00;99449.66;7396871;19;20475;-53
2022/06/08 01:53:36;;;;;;;11.33;7.60;;;;;;;9.50;100.00;99442.03;7392825;19;20427;-55
2022/06/08 01:56:16;;;;;;;16.73;8.87;;;;;;;9.45;100.00;99433.31;7387751;19;20383;-57
2022/06/08 01:58:50;;;;;;;14.27;8.17;;;;;;;9.45;100.00;99423.88;7394354;19;20383;-55
2022/06/08 02:01:24;;;;;;;12.73;8.10;;;;;;;9.44;100.00;99414.41;7389808;19;20547;-51
2022/06/08 02:04:00;;;;;;;14.90;8.40;;;;;;;9.40;100.00;99414.31;7392994;19;20431;-54
2022/06/08 02:06:45;;;;;;;15.77;8.40;;;;;;;9.38;100.00;99405.69;7387911;19;20403;-51
2022/06/08 02:09:19;;;;;;;14.40;8.27;;;;;;;9.35;100.00;99405.59;7394678;19;20388;-56
2022/06/08 02:11:57;;;;;;;14.80;8.73;;;;;;;9.35;100.00;99395.28;7387203;19;20502;-53
2022/06/08 02:14:35;;;;;;;16.53;8.23;;;;;;;9.35;100.00;99400.44;7393358;19;20422;-56
2022/06/08 02:17:08;;;;;;;11.90;7.87;;;;;;;9.32;100.00;99396.09;7388206;19;20407;-51
2022/06/08 02:19:41;;;;;;;25.43;9.00;;;;;;;9.29;100.00;99399.44;7394639;19;20383;-56
2022/06/08 02:22:14;;;;;;;14.23;8.37;;;;;;;9.29;100.00;99399.44;7387483;19;20518;-54
2022/06/08 02:24:48;;;;;;;14.40;8.20;;;;;;;9.26;100.00;99401.97;7392506;19;21003;-54
2022/06/08 02:27:25;;;;;;;16.10;9.80;;;;;;;9.26;100.00;99396.81;7387175;19;20493;-55
2022/06/08 02:29:58;;;;;;;15.20;8.50;;;;;;;9.28;100.00;99396.88;7393910;19;20375;-56
2022/06/08 02:35:20;;;;;;;20.43;10.10;;;;;;;9.24;100.00;99397.59;7394056;19;20387;-53
2022/06/08 02:37:52;;;;;;;14.50;9.27;;;;;;;9.22;100.00;99402.69;7385610;19;20490;-53
2022/06/08 02:40:24;;;;;;;14.67;9.97;;;;;;;9.17;100.00;99399.13;7394173;19;20741;-55
2022/06/08 02:42:58;;;;;;;14.80;9.40;;;;;;;9.17;100.00;99401.72;7384641;19;20443;-55
2022/06/08 02:45:33;;;;;;;16.23;10.37;;;;;;;9.17;100.00;99400.03;7393612;19;20397;-57
2022/06/08 02:48:05;;;;;;;14.73;9.13;;;;;;;9.17;100.00;99391.41;7387590;19;20493;-53
2022/06/08 02:50:35;;;;;;;17.40;10.10;;;;;;;9.13;100.00;99389.63;7393811;19;20404;-54
2022/06/08 02:53:11;;;;;;;15.07;9.77;;;;;;;9.12;100.00;99395.59;7384829;19;20833;-58
2022/06/08 02:55:48;;;;;;;17.77;10.30;;;;;;;9.12;100.00;99396.44;7393698;19;20439;-56
2022/06/08 02:58:24;;;;;;;16.27;9.90;;;;;;;9.11;100.00;99398.97;7386240;19;20482;-57
2022/06/08 03:00:58;;;;;;;13.60;10.13;;;;;;;9.07;100.00;99398.03;7393052;19;20390;-57
2022/06/08 03:03:34;;;;;;;13.77;9.37;;;;;;;9.10;100.00;99399.81;7390200;19;20487;-54
2022/06/08 03:06:08;;;;;;;16.07;10.17;;;;;;;9.30;100.00;99390.91;7386784;19;20383;-52
2022/06/08 03:08:41;;;;;;;13.37;9.47;;;;;;;9.31;100.00;99391.78;7392868;19;20392;-55
2022/06/08 03:11:11;;;;;;;18.00;10.27;;;;;;;9.16;100.00;99395.72;7385586;19;20401;-55
2022/06/08 03:13:50;;;;;;;14.60;9.90;;;;;;;9.05;100.00;99398.00;7390890;19;20411;-56
2022/06/08 03:16:28;;;;;;;14.80;9.37;;;;;;;9.05;100.00;99402.28;7388020;19;21471;-54
2022/06/08 03:18:58;;;;;;;15.90;10.50;;;;;;;9.06;100.00;99406.59;7392593;19;20400;-57
2022/06/08 03:21:29;;;;;;;19.63;11.20;;;;;;;9.02;100.00;99403.06;7387004;19;20423;-54
2022/06/08 03:23:59;;;;;;;17.17;10.57;;;;;;;9.03;100.00;99402.22;7390177;19;20494;-54
2022/06/08 03:26:37;;;;;;;19.07;10.63;;;;;;;9.03;100.00;99409.94;7388107;19;20411;-52
2022/06/08 03:29:09;;;;;;;16.93;10.33;;;;;;;9.03;100.00;99402.22;7392409;19;20399;-56
2022/06/08 03:31:39;;;;;;;18.60;9.90;;;;;;;9.04;100.00;99408.25;7392067;19;20423;-54
2022/06/08 03:34:09;;;;;;;18.00;9.60;;;;;;;9.03;100.00;99409.94;7397983;19;20412;-49
2022/06/08 03:36:39;;;;;;;18.00;10.57;;;;;;;9.03;100.00;99414.25;7390384;19;20482;-55
2022/06/08 03:39:09;;;;;;;16.27;10.50;;;;;;;9.08;100.00;99409.22;7399691;19;20429;-53
2022/06/08 03:41:39;;;;;;;23.00;13.27;;;;;;;9.18;100.00;99418.91;7392668;19;20415;-57
2022/06/08 03:44:12;;;;;;;27.13;14.40;;;;;;;9.24;100.00;99413.03;7396339;19;20426;-56
2022/06/08 03:46:44;;;;;;;23.20;12.60;;;;;;;9.23;100.00;99412.16;7392726;19;20407;-55
2022/06/08 03:49:14;;;;;;;22.10;12.70;;;;;;;9.30;100.00;99414.09;7400492;19;20392;-56
2022/06/08 03:51:44;;;;;;;18.33;10.70;;;;;;;9.67;100.00;99413.22;7392630;19;20575;-54
2022/06/08 03:54:17;;;;;;;19.53;10.90;;;;;;;9.73;100.00;99419.41;7396767;19;20487;-56
2022/06/08 03:56:50;;;;;;;17.00;10.80;;;;;;;9.76;100.00;99418.63;7391799;19;20407;-53
2022/06/08 03:59:26;;;;;;;17.90;11.30;;;;;;;9.50;100.00;99425.69;7396439;19;20381;-56
2022/06/08 04:01:56;;;;;;;16.40;11.07;;;;;;;9.40;100.00;99430.63;7391408;19;20415;-58
2022/06/08 04:04:27;;;;;;;18.00;10.20;;;;;;;9.42;100.00;99438.38;7396702;19;20420;-52
2022/06/08 04:06:57;;;;;;;14.47;9.47;;;;;;;9.42;100.00;99446.09;7391205;19;20407;-56
2022/06/08 04:09:26;;;;;;;17.00;9.63;;;;;;;9.47;100.00;99447.09;7399069;19;20796;-53
2022/06/08 04:11:56;;;;;;;16.27;9.93;;;;;;;9.52;100.00;99448.09;7392370;19;20510;-55
2022/06/08 04:14:29;;;;;;;16.80;9.33;;;;;;;9.57;100.00;99449.06;7396519;19;20411;-55
2022/06/08 04:16:58;;;;;;;24.53;12.37;;;;;;;9.65;100.00;99453.53;7392702;19;20415;-56
2022/06/08 04:19:28;;;;;;;11.90;9.43;;;;;;;9.71;100.00;99461.41;7397921;19;20459;-57
2022/06/08 04:21:58;;;;;;;15.60;10.33;;;;;;;9.82;100.00;99471.97;7390615;19;20415;-58
2022/06/08 04:24:28;;;;;;;19.07;10.07;;;;;;;9.95;100.00;99461.13;7395649;19;20432;-56
2022/06/08 04:27:04;;;;;;;18.30;9.37;;;;;;;10.01;100.00;99465.56;7375838;19;20428;-53
2022/06/08 04:29:37;;;;;;;13.70;10.27;;;;;;;10.08;100.00;99476.88;7397665;19;20416;-56
2022/06/08 04:32:09;;;;;;;18.40;10.73;;;;;;;10.10;100.00;99490.69;7389623;19;20490;-51
2022/06/08 04:34:41;;;;;;;19.50;10.43;;;;;;;10.13;100.00;99490.75;7395517;19;20415;-57
2022/06/08 04:37:11;;;;;;;18.13;10.43;;;;;;;10.20;100.00;99496.94;7390276;19;20499;-52
2022/06/08 04:39:41;;;;;;;19.60;11.47;;;;;;;10.26;100.00;99500.50;7397220;19;20902;-54
2022/06/08 04:42:16;;;;;;;16.93;10.17;;;;;;;10.37;100.00;99505.88;7386755;19;20485;-53
2022/06/08 04:44:49;;;;;;;22.27;11.07;;;;;;;10.45;100.00;99523.31;7394843;19;20467;-53
2022/06/08 04:47:19;;;;;;;16.73;10.97;;;;;;;10.52;100.00;99522.59;7390153;19;20395;-58
2022/06/08 04:49:49;;;;;;;14.83;10.00;;;;;;;10.59;100.00;99531.31;7396687;19;20403;-51
2022/06/08 04:52:19;;;;;;;14.07;9.57;;;;;;;10.69;100.00;99532.38;7389185;19;20791;-55
2022/06/08 04:54:49;;;;;;;13.90;9.80;;;;;;;10.79;100.00;99531.75;7394952;19;20424;-56
2022/06/08 04:57:21;;;;;;;18.83;10.93;;;;;;;10.82;100.00;99536.13;7389340;19;20427;-49
2022/06/08 04:59:54;;;;;;;18.40;10.20;;;;;;;10.87;100.00;99532.78;7396632;19;20390;-55
2022/06/08 05:05:10;;;;;;;17.67;11.37;;;;;;;11.06;100.00;99538.31;7396863;19;20388;-56
2022/06/08 05:07:40;;;;;;;17.20;10.40;;;;;;;11.21;100.00;99546.41;7388082;19;20415;-56
2022/06/08 05:10:11;;;;;;;18.80;10.40;;;;;;;11.21;100.00;99542.94;7396624;19;20397;-54
2022/06/08 05:12:42;;;;;;;23.10;9.67;;;;;;;11.28;100.00;99541.34;7389649;19;20772;-58
2022/06/08 05:15:18;;;;;;;46.40;26.83;;;;;;;11.63;100.00;99537.69;7396318;19;20402;-54
2022/06/08 05:17:48;;;;;;;16.33;10.70;;;;;;;11.61;100.00;99532.47;7391342;19;20441;-57
2022/06/08 05:20:23;;;;;;;14.97;9.13;;;;;;;11.59;100.00;99539.34;7396346;19;20381;-54
2022/06/08 05:22:54;;;;;;;11.00;8.00;;;;;;;11.60;100.00;99541.94;7388851;19;20403;-56
2022/06/08 05:25:28;;;;;;;18.17;10.27;;;;;;;11.79;100.00;99541.41;7396089;19;20478;-50
2022/06/08 05:27:59;;;;;;;13.67;9.10;;;;;;;11.82;100.00;99542.34;7387864;19;20414;-56
2022/06/08 05:30:32;;;;;;;15.37;9.70;;;;;;;12.09;100.00;99537.59;7396080;19;20740;-53
2022/06/08 05:33:03;;;;;;;12.87;7.63;;;;;;;12.14;100.00;99538.56;7387274;19;20426;-54
2022/06/08 05:35:33;;;;;;;12.30;8.43;;;;;;;11.99;100.00;99537.44;7395854;19;20393;-57
2022/06/08 05:38:03;;;;;;;14.83;9.20;;;;;;;12.18;100.00;99539.47;7387493;19;20441;-57
2022/06/08 05:40:35;;;;;;;16.80;9.97;;;;;;;12.50;100.00;99542.56;7395472;19;20405;-56
2022/06/08 05:43:05;;;;;;;17.00;9.50;;;;;;;12.37;100.00;99550.97;7390106;19;20873;-55
2022/06/08 05:45:39;;;;;;;17.50;9.40;;;;;;;12.27;100.00;99552.56;7394544;19;20394;-58
2022/06/08 05:48:10;;;;;;;19.13;9.90;;;;;;;12.53;100.00;99552.97;7386393;19;20825;-55
2022/06/08 05:50:41;;;;;;;16.63;9.33;;;;;;;12.73;100.00;99554.06;7396910;19;20470;-53
2022/06/08 05:53:12;;;;;;;20.57;10.47;;;;;;;12.68;100.00;99557.47;7386862;19;20502;-55
2022/06/08 05:55:43;;;;;;;21.87;11.33;;;;;;;12.52;100.00;99551.19;7394827;19;20808;-59
2022/06/08 05:58:13;;;;;;;19.77;11.40;;;;;;;12.60;100.00;99545.28;7386090;19;20429;-55
2022/06/08 06:00:45;;;;;;;14.67;9.90;;;;;;;12.89;100.00;99542.22;7394309;19;20385;-56
2022/06/08 06:03:16;;;;;;;15.67;9.43;;;;;;;12.71;100.00;99538.53;7386374;19;20437;-52
2022/06/08 06:05:47;;;;;;;40.10;18.03;;;;;;;12.75;100.00;99548.06;7394018;19;20922;-52
2022/06/08 06:08:17;;;;;;;21.70;11.43;;;;;;;12.94;100.00;99538.84;7387259;19;20422;-54
2022/06/08 06:10:48;;;;;;;35.87;17.40;;;;;;;12.82;100.00;99534.38;7394503;19;20457;-56
2022/06/08 06:13:19;;;;;;;19.40;10.33;;;;;;;12.81;100.00;99535.22;7385205;19;20959;-54
2022/06/08 06:15:54;;;;;;;14.60;8.70;;;;;;;12.70;100.00;99539.38;7393919;19;20484;-56
2022/06/08 06:18:24;;;;;;;22.70;13.70;;;;;;;12.89;100.00;99544.78;7385842;19;20519;-56
2022/06/08 06:20:54;;;;;;;25.87;11.83;;;;;;;13.24;100.00;99541.78;7393934;19;20388;-59
2022/06/08 06:23:25;;;;;;;31.70;12.30;;;;;;;13.40;100.00;99534.16;7386461;19;20415;-55
2022/06/08 06:25:55;;;;;;;21.70;10.00;;;;;;;13.44;100.00;99533.34;7393261;19;20472;-52
2022/06/08 06:28:25;;;;;;;17.30;9.40;;;;;;;13.61;100.00;99526.66;7388260;19;21013;-54
2022/06/08 06:30:58;;;;;;;15.67;10.43;;;;;;;13.75;100.00;99520.72;7393991;19;20393;-54
2022/06/08 06:33:28;;;;;;;18.00;8.73;;;;;;;13.56;100.00;99515.38;7392049;19;20883;-56
2022/06/08 06:35:58;;;;;;;14.90;10.23;;;;;;;13.38;100.00;99513.41;7393013;19;20395;-55
2022/06/08 06:38:28;;;;;;;20.17;10.47;;;;;;;13.41;100.00;99528.13;7393232;19;20417;-54
2022/06/08 06:40:58;;;;;;;26.93;12.70;;;;;;;13.55;100.00;99520.53;7393597;19;20759;-55
2022/06/08 06:43:28;;;;;;;17.07;9.97;;;;;;;13.56;100.00;99520.56;7389380;19;20463;-57
2022/06/08 06:46:06;;;;;;;16.97;9.30;;;;;;;13.55;100.00;99516.22;7388963;19;20401;-55
2022/06/08 06:48:39;;;;;;;16.20;9.53;;;;;;;13.54;100.00;99517.06;7396988;19;20426;-57
2022/06/08 06:51:10;;;;;;;19.37;9.10;;;;;;;13.61;100.00;99521.47;7388282;19;20386;-58
2022/06/08 06:53:39;;;;;;;12.80;8.70;;;;;;;13.55;100.00;99515.34;7391189;19;20942;-55
2022/06/08 06:56:12;;;;;;;16.10;9.00;;;;;;;13.63;100.00;99524.06;7387279;19;20952;-55
2022/06/08 06:58:42;;;;;;;18.57;9.67;;;;;;;13.71;100.00;99521.53;7392961;19;20464;-54
2022/06/08 07:01:15;;;;;;;13.13;8.83;;;;;;;13.69;100.00;99526.72;7388375;19;20415;-50
2022/06/08 07:03:44;;;;;;;20.17;10.13;;;;;;;13.77;100.00;99530.25;7391300;19;20490;-55
2022/06/08 07:06:14;;;;;;;19.43;10.27;;;;;;;13.84;100.00;99538.94;7393344;19;20387;-54
2022/06/08 07:08:44;;;;;;;20.50;10.20;;;;;;;14.00;100.00;99544.28;7400529;19;20762;-54
2022/06/08 07:13:57;;;;;;;15.13;9.40;;;;;;;14.04;100.00;99546.03;7397620;19;20423;-58
2022/06/08 07:16:29;;;;;;;17.00;8.90;;;;;;;14.00;100.00;99545.13;7394328;19;20415;-55
2022/06/08 07:18:59;;;;;;;15.30;9.53;;;;;;;14.14;100.00;99553.03;7403341;19;20387;-57
2022/06/08 07:21:29;;;;;;;12.00;8.67;;;;;;;14.16;100.00;99551.31;7394406;19;20429;-56
2022/06/08 07:23:58;;;;;;;16.00;8.07;;;;;;;14.25;100.00;99557.44;7397289;19;20434;-52
2022/06/08 07:26:28;;;;;;;13.37;7.83;;;;;;;14.30;100.00;99559.19;7392583;19;20489;-56
2022/06/08 07:28:58;;;;;;;18.33;8.00;;;;;;;14.21;100.00;99556.56;7399746;19;20786;-57
2022/06/08 07:31:30;;;;;;;15.43;9.13;;;;;;;14.30;100.00;99558.31;7394194;19;20414;-55
2022/06/08 07:34:01;;;;;;;15.30;8.63;;;;;;;14.22;100.00;99560.00;7397207;19;20400;-55
2022/06/08 07:36:31;;;;;;;20.20;9.73;;;;;;;14.30;100.00;99563.50;7392708;19;21244;-53
2022/06/08 07:39:00;;;;;;;19.37;9.40;;;;;;;14.33;100.00;99563.53;7400128;19;20380;-54
2022/06/08 07:41:30;;;;;;;15.60;9.00;;;;;;;14.45;100.00;99548.06;7392066;19;20409;-55
2022/06/08 07:44:01;;;;;;;14.80;8.60;;;;;;;14.45;100.00;99550.66;7399682;19;20429;-53
2022/06/08 07:46:33;;;;;;;16.87;9.23;;;;;;;14.40;100.00;99547.16;7389936;19;20438;-55
2022/06/08 07:51:46;;;;;;;17.83;9.73;;;;;;;14.53;100.00;99560.22;7393664;19;20412;-52
2022/06/08 07:54:15;;;;;;;14.20;8.77;;;;;;;14.58;100.00;99558.53;7398057;19;20434;-57
2022/06/08 07:56:45;;;;;;;18.23;8.47;;;;;;;14.65;100.00;99549.91;7392242;19;20409;-55
2022/06/08 07:59:15;;;;;;;12.97;9.10;;;;;;;14.51;100.00;99551.56;7398785;19;20448;-53
2022/06/08 08:01:47;;;;;;;18.33;9.10;;;;;;;14.52;100.00;99555.88;7391477;19;20424;-55
2022/06/08 08:04:17;;;;;;;13.57;9.17;;;;;;;14.50;100.00;99553.28;7396774;19;20426;-50
2022/06/08 08:06:46;;;;;;;18.30;9.10;;;;;;;14.70;100.00;99557.72;7390022;19;20407;-57
2022/06/08 08:09:17;;;;;;;16.47;8.47;;;;;;;14.81;100.00;99550.00;7398446;19;20477;-54
2022/06/08 08:11:49;;;;;;;16.83;8.80;;;;;;;14.92;100.00;99543.16;7390779;19;20423;-56
2022/06/08 08:14:19;;;;;;;16.17;9.50;;;;;;;14.88;100.00;99545.72;7396372;19;21006;-56
2022/06/08 08:16:52;;;;;;;13.83;9.07;;;;;;;14.88;100.00;99541.41;7392130;19;20503;-55
2022/06/08 08:19:24;;;;;;;17.07;8.83;;;;;;;14.88;100.00;99525.84;7396936;19;20380;-58
2022/06/08 08:21:56;;;;;;;13.47;8.83;;;;;;;15.06;100.00;99526.75;7389389;19;20429;-56
2022/06/08 08:24:25;;;;;;;13.90;7.90;;;;;;;14.98;100.00;99517.19;7395868;19;20419;-55
2022/06/08 08:26:55;;;;;;;33.03;13.83;;;;;;;15.01;100.00;99516.34;7389512;19;20416;-58
2022/06/08 08:29:25;;;;;;;30.37;13.00;;;;;;;15.04;100.00;99515.50;7398064;19;20747;-57
2022/06/08 08:31:57;;;;;;;16.20;9.10;;;;;;;15.32;100.00;99515.56;7391468;19;20479;-56
2022/06/08 08:34:27;;;;;;;15.00;8.20;;;;;;;15.27;100.00;99512.97;7395939;19;20416;-54
2022/06/08 08:36:57;;;;;;;11.77;8.00;;;;;;;15.30;100.00;99512.09;7390911;19;20417;-56
2022/06/08 08:39:27;;;;;;;18.10;8.47;;;;;;;15.36;100.00;99507.81;7397360;19;20382;-54
2022/06/08 08:44:42;;;;;;;13.10;7.83;;;;;;;15.82;100.00;99484.44;7398545;19;20496;-57
2022/06/08 08:47:20;;;;;;;11.40;7.37;;;;;;;15.56;100.00;99488.78;7392116;19;20415;-57
2022/06/08 08:49:55;;;;;;;12.73;6.63;;;;;;;15.46;100.00;99481.81;7396901;19;20390;-53
2022/06/08 08:52:34;;;;;;;13.43;6.33;;;;;;;15.57;100.00;99480.09;7389844;19;20449;-57
2022/06/08 08:55:08;;;;;;;10.67;6.30;;;;;;;15.63;100.00;99463.63;7396563;19;21008;-56
2022/06/08 08:57:45;;;;;;;11.87;6.70;;;;;;;15.75;100.00;99458.44;7388390;19;20449;-57
2022/06/08 09:00:24;;;;;;;16.00;6.63;;;;;;;16.08;100.00;99454.97;7398134;19;20415;-58
2022/06/08 09:05:42;;;;;;;29.70;10.97;;;;;;;15.90;100.00;99441.13;7395544;19;20454;-56
2022/06/08 09:08:13;;;;;;;8.30;5.03;;;;;;;16.26;100.00;99447.13;7389213;19;21267;-56
2022/06/08 09:10:52;;;;;;;15.60;7.60;;;;;;;16.56;100.00;99437.50;7396446;19;20481;-55
2022/06/08 09:13:35;;;;;;;11.67;4.90;;;;;;;16.85;100.00;99423.47;7396819;19;20948;-52
2022/06/08 09:16:12;;;;;;;6.93;3.90;;;;;;;16.80;100.00;99419.16;7392514;19;20407;-55
2022/06/08 09:18:44;;;;;;;7.50;3.70;;;;;;;16.70;100.00;99423.53;7395659;19;20975;-56
2022/06/08 09:21:38;;;;;;;13.80;6.10;;;;;;;16.67;100.00;99423.56;7390245;19;20390;-55
2022/06/08 09:24:13;;;;;;;7.70;4.77;;;;;;;16.79;100.00;99430.44;7394249;19;20781;-56
2022/06/08 09:26:42;;;;;;;13.33;6.13;;;;;;;16.73;100.00;99429.59;7387305;19;20410;-54
2022/06/08 09:29:20;;;;;;;8.63;4.43;;;;;;;16.92;100.00;99436.47;7399600;19;20409;-59
2022/06/08 09:31:51;;;;;;;12.00;5.30;;;;;;;17.09;100.00;99426.88;7391113;19;20452;-55
2022/06/08 09:34:27;;;;;;;7.90;3.87;;;;;;;17.28;100.00;99426.75;7393834;19;20423;-57
2022/06/08 09:37:09;;;;;;;7.10;4.27;;;;;;;17.38;100.00;99433.59;7388737;19;20530;-55
2022/06/08 09:39:39;;;;;;;11.27;5.30;;;;;;;17.36;100.00;99424.94;7395520;19;20391;-58
2022/06/08 09:42:23;;;;;;;17.17;10.03;;;;;;;17.63;100.00;99417.75;7387280;19;20421;-53
2022/06/08 09:45:01;;;;;;;7.73;3.90;;;;;;;17.78;100.00;99390.69;7393908;19;20428;-56
2022/06/08 09:53:16;;;;;;;8.30;5.30;;;;;;;18.37;100.00;99390.94;7387348;19;20426;-58
2022/06/08 09:55:59;;;;;;;14.13;8.27;;;;;;;18.26;100.00;99380.63;7395073;19;20469;-56
2022/06/08 09:58:52;;;;;;;62.20;22.00;;;;;;;18.21;100.00;99392.00;7393818;19;20412;-56
2022/06/08 10:01:29;;;;;;;10.77;7.20;;;;;;;18.13;100.00;99390.34;7390053;19;20421;-56
2022/06/08 10:04:37;;;;;;;17.07;8.67;;;;;;;18.20;100.00;99397.25;7392996;19;21004;-56
2022/06/08 10:07:21;;;;;;;31.13;16.20;;;;;;;18.05;100.00;99393.03;7386944;19;20445;-56
2022/06/08 10:10:01;;;;;;;18.53;9.60;;;;;;;18.45;100.00;99387.38;7393458;19;20390;-57
2022/06/08 10:12:39;;;;;;;14.53;8.87;;;;;;;18.71;100.00;99382.69;7387885;19;20433;-55
2022/06/08 10:15:17;;;;;;;15.20;9.30;;;;;;;18.40;100.00;99381.31;7393565;19;20411;-55
2022/06/08 10:17:53;;;;;;;12.63;7.17;;;;;;;18.08;100.00;99396.50;7382746;19;20991;-54
2022/06/08 10:20:29;;;;;;;18.57;8.73;;;;;;;18.26;100.00;99397.19;7389875;19;20382;-56
2022/06/08 10:23:04;;;;;;;17.10;9.30;;;;;;;18.41;100.00;99390.88;7381568;19;20429;-56
2022/06/08 10:25:38;;;;;;;12.63;8.67;;;;;;;18.73;100.00;99394.81;7391686;19;20376;-52
2022/06/08 10:28:12;;;;;;;15.73;9.67;;;;;;;18.43;100.00;99389.13;7383966;19;20446;-55
2022/06/08 10:30:45;;;;;;;18.20;9.50;;;;;;;18.29;100.00;99386.69;7391432;19;20411;-56
2022/06/08 10:33:19;;;;;;;14.37;9.13;;;;;;;18.34;100.00;99392.72;7382592;19;20407;-56
2022/06/08 10:35:50;;;;;;;15.27;10.10;;;;;;;18.57;100.00;99381.09;7391686;19;20399;-55
2022/06/08 10:38:28;;;;;;;15.87;10.10;;;;;;;18.72;100.00;99373.97;7383797;19;20949;-57
2022/06/08 10:41:02;;;;;;;15.53;9.87;;;;;;;18.96;100.00;99383.19;7397968;19;20932;-57
2022/06/08 10:43:34;;;;;;;14.10;8.33;;;;;;;19.43;100.00;99387.72;7395593;19;20593;-55
2022/06/08 10:46:06;;;;;;;17.03;10.00;;;;;;;19.68;100.00;99369.00;7390611;19;20387;-53
2022/06/08 10:48:50;;;;;;;14.50;8.60;;;;;;;19.79;100.00;99390.59;7399084;19;20955;-54
2022/06/08 10:51:41;;;;;;;20.20;11.17;;;;;;;19.20;100.00;99399.44;7392964;19;21326;-54
2022/06/08 10:54:58;;;;;;;16.33;11.33;;;;;;;19.07;100.00;99395.28;7397476;19;20415;-58
2022/06/08 10:57:50;;;;;;;15.10;8.43;;;;;;;19.60;100.00;99402.28;7390545;19;20841;-52
2022/06/08 11:00:38;;;;;;;13.63;8.97;;;;;;;19.37;100.00;99401.78;7399674;19;20387;-59
2022/06/08 11:03:25;;;;;;;17.50;11.10;;;;;;;19.14;100.00;99412.59;7391966;19;20452;-53
2022/06/08 11:05:55;;;;;;;15.43;9.43;;;;;;;19.59;100.00;99404.06;7398997;19;20457;-54
2022/06/08 11:08:25;;;;;;;15.73;9.53;;;;;;;19.85;100.00;99394.88;7391824;19;20439;-56
2022/06/08 11:11:01;;;;;;;12.53;8.70;;;;;;;19.56;100.00;99398.84;7398974;19;20384;-56
2022/06/08 11:13:38;;;;;;;14.13;8.67;;;;;;;19.36;100.00;99399.19;7396452;19;20414;-58
2022/06/08 11:16:12;;;;;;;12.00;8.87;;;;;;;19.52;100.00;99400.66;7392220;19;20391;-55
2022/06/08 11:18:44;;;;;;;13.63;7.80;;;;;;;19.79;100.00;99380.13;7398290;19;20384;-56
2022/06/08 11:21:42;;;;;;;15.37;9.63;;;;;;;20.07;100.00;99382.28;7392276;19;20399;-58
2022/06/08 11:24:26;;;;;;;14.20;9.30;;;;;;;19.55;100.00;99387.50;7400420;19;20432;-59
2022/06/08 11:27:25;;;;;;;15.43;9.40;;;;;;;19.80;100.00;99379.22;7392563;19;20434;-56
2022/06/08 11:29:55;;;;;;;11.70;8.43;;;;;;;20.34;100.00;99373.88;7399025;19;20454;-51
2022/06/08 11:32:45;;;;;;;12.00;8.20;;;;;;;20.06;100.00;99366.59;7393003;19;20415;-57
2022/06/08 11:35:49;;;;;;;12.30;8.67;;;;;;;19.98;100.00;99364.13;7397049;19;20383;-58
2022/06/08 11:38:22;;;;;;;12.33;8.30;;;;;;;19.77;100.00;99361.00;7397090;19;20457;-59
2022/06/08 11:40:52;;;;;;;16.50;9.90;;;;;;;19.94;100.00;99358.06;7398914;19;20382;-56
2022/06/08 11:43:36;;;;;;;16.80;9.67;;;;;;;20.08;100.00;99349.97;7395098;19;20977;-56
2022/06/08 11:46:07;;;;;;;11.23;8.27;;;;;;;20.01;100.00;99350.13;7392742;19;20405;-59
2022/06/08 11:48:49;;;;;;;13.40;8.20;;;;;;;19.97;100.00;99344.06;7396221;19;20388;-58
2022/06/08 11:51:32;;;;;;;11.53;7.80;;;;;;;19.94;100.00;99333.66;7391606;19;20413;-54
2022/06/08 11:54:03;;;;;;;12.57;8.10;;;;;;;19.89;100.00;99333.72;7397307;19;20437;-56
2022/06/08 11:56:39;;;;;;;12.73;8.57;;;;;;;19.64;100.00;99330.72;7388940;19;20961;-53
2022/06/08 11:59:20;;;;;;;16.67;8.70;;;;;;;19.49;100.00;99324.84;7398611;19;20788;-57
2022/06/08 12:01:55;;;;;;;13.50;8.63;;;;;;;19.66;100.00;99310.63;7390668;19;20414;-59
2022/06/08 12:04:30;;;;;;;12.57;8.20;;;;;;;19.80;100.00;99313.81;7396636;19;20487;-53
2022/06/08 12:07:01;;;;;;;11.80;7.40;;;;;;;20.06;100.00;99307.22;7390223;19;20802;-54
2022/06/08 12:09:34;;;;;;;15.00;9.37;;;;;;;19.81;100.00;99314.69;7398248;19;20396;-56